createdAt,value
2023-03-23T00:00:45.683Z,65.38
2023-03-23T00:03:26.634Z,65.71
2023-03-23T00:06:07.514Z,65.73
2023-03-23T00:08:54.264Z,65.92
2023-03-23T00:11:30.580Z,66.16
2023-03-23T00:14:11.681Z,66.77
2023-03-23T00:16:49.604Z,67.72
2023-03-23T00:19:24.657Z,67.78
2023-03-23T00:21:58.471Z,67.31
2023-03-23T00:24:25.216Z,67.17
2023-03-23T00:26:59.965Z,67.29
2023-03-23T00:29:50.398Z,67.38
2023-03-23T00:32:21.871Z,67.01
2023-03-23T00:35:07.436Z,66.44
2023-03-23T00:37:37.480Z,66.69
2023-03-23T00:40:18.383Z,66.39
2023-03-23T00:42:54.289Z,66.66
2023-03-23T00:45:26.408Z,66.59
2023-03-23T00:47:53.275Z,66.14
2023-03-23T00:50:29.395Z,66.11
2023-03-23T00:53:18.788Z,65.89
2023-03-23T00:55:57.085Z,65.47
2023-03-23T00:58:26.809Z,65.58
2023-03-23T01:01:08.187Z,66.32
2023-03-23T01:06:32.031Z,66.20
2023-03-23T01:09:00.237Z,65.90
2023-03-23T01:11:27.074Z,65.53
2023-03-23T01:13:54.723Z,65.92
2023-03-23T01:16:32.256Z,65.27
2023-03-23T01:18:59.243Z,65.43
2023-03-23T01:21:26.357Z,66.12
2023-03-23T01:23:53.250Z,65.80
2023-03-23T01:26:22.946Z,64.71
2023-03-23T01:28:53.225Z,64.95
2023-03-23T01:31:27.421Z,64.93
2023-03-23T01:34:03.542Z,64.41
2023-03-23T01:36:38.078Z,65.03
2023-03-23T01:39:10.905Z,64.09
2023-03-23T01:41:40.575Z,64.04
2023-03-23T01:44:17.114Z,63.70
2023-03-23T01:47:08.833Z,61.91
2023-03-23T01:50:11.358Z,61.75
2023-03-23T01:52:47.113Z,62.05
2023-03-23T01:55:14.464Z,62.70
2023-03-23T01:57:41.373Z,62.29
2023-03-23T02:03:02.749Z,63.56
2023-03-23T02:05:34.496Z,64.25
2023-03-23T02:08:04.159Z,64.29
2023-03-23T02:10:38.462Z,64.38
2023-03-23T02:13:17.284Z,64.33
2023-03-23T02:16:03.646Z,64.58
2023-03-23T02:19:22.792Z,63.59
2023-03-23T02:21:49.594Z,64.09
2023-03-23T02:24:53.317Z,63.45
2023-03-23T02:28:12.546Z,64.54
2023-03-23T02:31:19.291Z,63.59
2023-03-23T02:34:23.179Z,63.02
2023-03-23T02:37:18.876Z,62.92
2023-03-23T02:39:57.299Z,64.27
2023-03-23T02:42:34.645Z,63.37
2023-03-23T02:45:09.948Z,63.94
2023-03-23T02:47:40.306Z,63.31
2023-03-23T02:50:19.794Z,63.16
2023-03-23T02:52:59.904Z,63.96
2023-03-23T02:55:30.399Z,64.68
2023-03-23T02:57:58.107Z,63.95
2023-03-23T03:00:27.740Z,63.17
2023-03-23T03:03:05.698Z,64.34
2023-03-23T03:06:20.000Z,64.16
2023-03-23T03:09:18.055Z,63.92
2023-03-23T03:12:01.094Z,63.79
2023-03-23T03:14:44.120Z,64.52
2023-03-23T03:17:44.985Z,66.62
2023-03-23T03:20:14.702Z,65.43
2023-03-23T03:22:49.061Z,64.24
2023-03-23T03:25:28.537Z,65.69
2023-03-23T03:27:57.424Z,64.64
2023-03-23T03:30:44.288Z,63.93
2023-03-23T03:33:21.078Z,63.82
2023-03-23T03:35:52.407Z,63.92
2023-03-23T03:38:21.708Z,63.65
2023-03-23T03:40:48.725Z,63.97
2023-03-23T03:43:18.825Z,64.23
2023-03-23T03:45:52.209Z,64.72
2023-03-23T03:48:19.088Z,64.52
2023-03-23T03:50:54.197Z,63.83
2023-03-23T03:53:28.781Z,64.59
2023-03-23T03:56:08.615Z,64.67
2023-03-23T03:58:46.203Z,65.08
2023-03-23T04:01:57.416Z,64.67
2023-03-23T04:04:24.265Z,65.11
2023-03-23T04:06:58.747Z,66.24
2023-03-23T04:09:30.929Z,65.45
2023-03-23T04:14:41.891Z,66.17
2023-03-23T04:17:11.953Z,65.70
2023-03-23T04:19:42.048Z,66.81
2023-03-23T04:22:15.017Z,66.72
2023-03-23T04:24:56.265Z,66.87
2023-03-23T04:27:29.549Z,66.10
2023-03-23T04:30:00.276Z,65.79
2023-03-23T04:32:34.726Z,66.48
2023-03-23T04:35:15.289Z,66.45
2023-03-23T04:37:47.550Z,67.00
2023-03-23T04:40:17.291Z,67.74
2023-03-23T04:43:07.182Z,67.81
2023-03-23T04:46:01.730Z,66.75
2023-03-23T04:48:42.925Z,65.87
2023-03-23T04:51:13.243Z,65.26
2023-03-23T04:53:40.319Z,65.92
2023-03-23T04:56:16.383Z,65.62
2023-03-23T04:58:50.382Z,66.34
2023-03-23T05:01:19.062Z,65.06
2023-03-23T05:04:02.804Z,64.94
2023-03-23T05:06:31.056Z,63.99
2023-03-23T05:09:04.650Z,61.98
2023-03-23T05:11:38.557Z,61.96
2023-03-23T05:16:38.967Z,61.76
2023-03-23T05:19:09.617Z,61.97
2023-03-23T05:21:42.076Z,61.84
2023-03-23T05:24:15.117Z,62.18
2023-03-23T05:26:43.208Z,62.19
2023-03-23T05:29:14.995Z,62.41
2023-03-23T05:31:41.918Z,61.75
2023-03-23T05:34:22.902Z,62.90
2023-03-23T05:36:59.481Z,61.84
2023-03-23T05:39:27.717Z,62.09
2023-03-23T05:41:57.521Z,63.36
2023-03-23T05:44:33.393Z,63.90
2023-03-23T05:47:05.287Z,63.14
2023-03-23T05:52:18.375Z,63.99
2023-03-23T05:54:52.209Z,64.63
2023-03-23T05:57:32.339Z,64.16
2023-03-23T06:00:15.567Z,64.25
2023-03-23T06:02:55.565Z,61.92
2023-03-23T06:05:29.089Z,63.15
2023-03-23T06:07:56.356Z,63.30
2023-03-23T06:10:36.049Z,62.42
2023-03-23T06:13:13.507Z,62.75
2023-03-23T06:15:43.721Z,62.67
2023-03-23T06:18:10.796Z,62.67
2023-03-23T06:20:47.004Z,61.77
2023-03-23T06:23:23.911Z,61.89
2023-03-23T06:26:07.281Z,62.51
2023-03-23T06:28:41.062Z,62.04
2023-03-23T06:31:29.320Z,60.64
2023-03-23T06:33:57.678Z,60.62
2023-03-23T06:36:25.090Z,60.20
2023-03-23T06:38:58.124Z,60.38
2023-03-23T06:41:25.984Z,59.53
2023-03-23T06:44:02.018Z,60.48
2023-03-23T06:46:29.628Z,60.71
2023-03-23T06:49:01.930Z,60.31
2023-03-23T06:51:28.980Z,60.91
2023-03-23T06:54:11.791Z,59.66
2023-03-23T06:56:38.644Z,59.88
2023-03-23T06:59:05.466Z,59.76
2023-03-23T07:01:41.614Z,59.69
2023-03-23T07:04:25.313Z,58.18
2023-03-23T07:07:10.380Z,57.17
2023-03-23T07:09:47.390Z,57.84
2023-03-23T07:12:22.313Z,55.96
2023-03-23T07:14:55.782Z,56.22
2023-03-23T07:17:26.804Z,55.33
2023-03-23T07:19:57.800Z,56.92
2023-03-23T07:22:30.058Z,58.63
2023-03-23T07:24:57.954Z,58.51
2023-03-23T07:27:38.952Z,57.32
2023-03-23T07:30:10.489Z,55.82
2023-03-23T07:32:39.718Z,56.51
2023-03-23T07:35:07.413Z,56.22
2023-03-23T07:37:44.132Z,54.10
2023-03-23T07:40:18.321Z,56.32
2023-03-23T07:42:47.318Z,51.54
2023-03-23T07:45:29.960Z,52.17
2023-03-23T07:50:49.414Z,50.78
2023-03-23T07:53:16.631Z,51.03
2023-03-23T07:55:46.935Z,49.73
2023-03-23T07:58:30.692Z,47.54
2023-03-23T08:01:14.109Z,46.35
2023-03-23T08:03:57.751Z,46.12
2023-03-23T08:06:40.356Z,52.01
2023-03-23T08:09:14.542Z,47.85
2023-03-23T08:11:54.505Z,46.54
2023-03-23T08:14:21.954Z,45.66
2023-03-23T08:16:49.481Z,47.00
2023-03-23T08:19:16.749Z,45.21
2023-03-23T08:21:46.916Z,44.55
2023-03-23T08:24:20.113Z,45.57
2023-03-23T08:26:49.722Z,50.84
2023-03-23T08:29:18.022Z,46.14
2023-03-23T08:31:49.396Z,44.75
2023-03-23T08:34:26.524Z,43.31
2023-03-23T08:36:55.038Z,43.01
2023-03-23T08:39:32.444Z,45.06
2023-03-23T08:42:02.889Z,44.90
2023-03-23T08:44:32.837Z,43.81
2023-03-23T08:47:04.698Z,44.17
2023-03-23T08:49:33.999Z,44.73
2023-03-23T08:52:07.254Z,44.24
2023-03-23T08:54:38.282Z,45.22
2023-03-23T08:57:17.135Z,43.41
2023-03-23T08:59:56.662Z,44.76
2023-03-23T09:02:29.674Z,44.35
2023-03-23T09:04:56.544Z,45.47
2023-03-23T09:07:29.271Z,44.71
2023-03-23T09:10:07.904Z,43.64
2023-03-23T09:12:40.367Z,44.14
2023-03-23T09:15:13.691Z,43.93
2023-03-23T09:18:01.373Z,44.49
2023-03-23T09:20:29.934Z,43.59
2023-03-23T09:23:09.798Z,43.31
2023-03-23T09:25:44.344Z,43.60
2023-03-23T09:28:28.095Z,42.71
2023-03-23T09:31:06.553Z,42.59
2023-03-23T09:33:49.361Z,41.68
2023-03-23T09:36:26.296Z,43.13
2023-03-23T09:38:57.337Z,41.34
2023-03-23T09:42:00.505Z,41.55
2023-03-23T09:44:50.955Z,40.84
2023-03-23T09:47:29.563Z,43.15
2023-03-23T09:50:02.531Z,44.91
2023-03-23T09:52:44.773Z,44.92
2023-03-23T09:55:18.764Z,44.13
2023-03-23T09:58:22.493Z,46.75
2023-03-23T10:01:51.480Z,40.54
2023-03-23T10:04:50.133Z,42.26
2023-03-23T10:07:42.343Z,39.20
2023-03-23T10:10:16.081Z,37.68
2023-03-23T10:13:17.295Z,39.01
2023-03-23T10:15:48.503Z,38.48
2023-03-23T10:18:32.706Z,39.34
2023-03-23T10:21:06.799Z,38.41
2023-03-23T10:24:00.662Z,38.60
2023-03-23T10:26:41.651Z,37.28
2023-03-23T10:29:17.566Z,37.55
2023-03-23T10:32:15.573Z,37.62
2023-03-23T10:35:21.666Z,38.10
2023-03-23T10:37:54.289Z,38.74
2023-03-23T10:40:27.195Z,38.85
2023-03-23T10:43:09.026Z,36.97
2023-03-23T10:45:39.833Z,38.37
2023-03-23T10:49:10.358Z,39.86
2023-03-23T10:51:54.667Z,38.60
2023-03-23T10:55:07.344Z,37.63
2023-03-23T10:57:44.545Z,39.07
2023-03-23T11:00:35.122Z,40.15
2023-03-23T11:03:12.919Z,42.18
2023-03-23T11:06:14.008Z,43.43
2023-03-23T11:09:18.031Z,40.47
2023-03-23T11:12:02.248Z,39.99
2023-03-23T11:14:44.076Z,39.20
2023-03-23T11:17:45.020Z,40.11
2023-03-23T11:20:42.040Z,40.50
2023-03-23T11:24:09.222Z,38.68
2023-03-23T11:27:02.431Z,39.51
2023-03-23T11:29:41.801Z,42.52
2023-03-23T11:32:21.093Z,40.96
2023-03-23T11:35:17.497Z,42.95
2023-03-23T11:38:08.364Z,41.21
2023-03-23T11:40:54.257Z,40.40
2023-03-23T11:43:27.186Z,41.68
2023-03-23T11:46:32.069Z,40.39
2023-03-23T11:52:49.619Z,40.91
2023-03-23T11:55:32.256Z,41.77
2023-03-23T11:58:09.385Z,43.84
2023-03-23T12:00:52.014Z,42.08
2023-03-23T12:03:22.372Z,42.79
2023-03-23T12:06:09.294Z,44.59
2023-03-23T12:08:52.889Z,46.49
2023-03-23T12:11:32.212Z,45.09
2023-03-23T12:14:12.744Z,45.50
2023-03-23T12:16:55.131Z,45.29
2023-03-23T12:19:44.411Z,45.75
2023-03-23T12:22:56.175Z,46.26
2023-03-23T12:26:07.980Z,44.87
2023-03-23T12:28:43.865Z,44.26
2023-03-23T12:34:58.733Z,47.33
2023-03-23T12:38:11.326Z,45.25
2023-03-23T12:41:07.628Z,45.05
2023-03-23T12:43:58.423Z,45.94
2023-03-23T12:47:08.688Z,47.44
2023-03-23T12:49:52.999Z,44.03
2023-03-23T12:53:01.666Z,45.07
2023-03-23T12:55:49.122Z,46.69
2023-03-23T12:58:33.360Z,46.70
2023-03-23T13:01:30.674Z,46.63
2023-03-23T13:04:17.512Z,46.62
2023-03-23T13:06:48.424Z,45.19
2023-03-23T13:09:46.033Z,45.22
2023-03-23T13:12:37.048Z,46.29
2023-03-23T13:15:50.627Z,46.87
2023-03-23T13:18:39.833Z,47.34
2023-03-23T13:21:53.030Z,47.89
2023-03-23T13:24:35.225Z,48.56
2023-03-23T13:27:08.936Z,49.24
2023-03-23T13:29:35.986Z,49.62
2023-03-23T13:32:23.865Z,47.49
2023-03-23T13:35:17.422Z,47.42
2023-03-23T13:37:52.112Z,48.54
2023-03-23T13:40:37.592Z,48.39
2023-03-23T13:43:11.233Z,46.48
2023-03-23T13:45:49.298Z,47.80
2023-03-23T13:48:16.962Z,47.90
2023-03-23T13:51:04.509Z,47.93
2023-03-23T13:53:56.571Z,48.77
2023-03-23T13:56:57.533Z,49.48
2023-03-23T13:59:33.504Z,49.52
2023-03-23T14:02:52.437Z,49.35
2023-03-23T14:05:29.862Z,50.22
2023-03-23T14:08:14.565Z,49.34
2023-03-23T14:10:55.167Z,48.36
2023-03-23T14:13:40.485Z,48.87
2023-03-23T14:16:48.135Z,48.87
2023-03-23T14:19:30.408Z,47.75
2023-03-23T14:22:03.711Z,49.10
2023-03-23T14:24:41.937Z,50.34
2023-03-23T14:27:30.280Z,50.06
2023-03-23T14:30:10.324Z,50.76
2023-03-23T14:32:46.981Z,50.79
2023-03-23T14:35:31.004Z,50.50
2023-03-23T14:38:24.775Z,49.81
2023-03-23T14:41:07.838Z,50.16
2023-03-23T14:43:42.251Z,50.88
2023-03-23T14:46:23.984Z,50.30
2023-03-23T14:49:08.892Z,50.62
2023-03-23T14:51:36.055Z,51.36
2023-03-23T14:54:14.162Z,51.67
2023-03-23T14:56:52.155Z,51.48
2023-03-23T14:59:26.845Z,51.81
2023-03-23T15:02:06.407Z,51.40
2023-03-23T15:04:33.589Z,50.69
2023-03-23T15:07:42.635Z,51.29
2023-03-23T15:10:32.488Z,51.44
2023-03-23T15:12:59.737Z,51.52
2023-03-23T15:15:41.072Z,51.69
2023-03-23T15:19:06.511Z,51.66
2023-03-23T15:22:14.751Z,52.10
2023-03-23T15:24:49.949Z,52.34
2023-03-23T15:27:31.702Z,52.87
2023-03-23T15:30:16.751Z,52.80
2023-03-23T15:32:57.720Z,51.98
2023-03-23T15:35:49.249Z,51.99
2023-03-23T15:38:39.384Z,52.37
2023-03-23T15:41:32.203Z,51.42
2023-03-23T15:44:06.234Z,51.06
2023-03-23T15:46:37.579Z,51.62
2023-03-23T15:49:14.730Z,52.46
2023-03-23T15:51:41.933Z,52.33
2023-03-23T15:54:25.547Z,52.75
2023-03-23T15:56:54.759Z,52.97
2023-03-23T15:59:28.449Z,52.84
2023-03-23T16:01:59.855Z,52.78
2023-03-23T16:04:27.335Z,53.04
2023-03-23T16:07:07.002Z,53.20
2023-03-23T16:09:34.511Z,53.01
2023-03-23T16:12:08.799Z,53.46
2023-03-23T16:14:35.721Z,53.59
2023-03-23T16:17:04.970Z,53.05
2023-03-23T16:19:31.978Z,53.32
2023-03-23T16:21:58.850Z,53.12
2023-03-23T16:24:25.987Z,53.21
2023-03-23T16:26:52.846Z,53.13
2023-03-23T16:29:39.738Z,53.29
2023-03-23T16:32:07.067Z,53.85
2023-03-23T16:34:41.588Z,53.56
2023-03-23T16:37:12.320Z,53.83
2023-03-23T16:39:39.246Z,53.82
2023-03-23T16:42:07.396Z,53.77
2023-03-23T16:44:34.322Z,53.72
2023-03-23T16:47:04.467Z,53.81
2023-03-23T16:49:31.375Z,53.81
2023-03-23T16:51:59.826Z,53.96
2023-03-23T16:54:36.952Z,53.68
2023-03-23T16:57:09.295Z,53.69
2023-03-23T16:59:48.717Z,54.62
2023-03-23T17:02:16.999Z,53.74
2023-03-23T17:04:51.800Z,53.85
2023-03-23T17:07:19.171Z,54.21
2023-03-23T17:09:47.712Z,55.14
2023-03-23T17:12:16.531Z,55.00
2023-03-23T17:14:44.034Z,53.72
2023-03-23T17:17:20.978Z,54.04
2023-03-23T17:19:53.447Z,53.88
2023-03-23T17:22:30.902Z,54.34
2023-03-23T17:25:02.789Z,55.16
2023-03-23T17:27:31.547Z,55.37
2023-03-23T17:30:11.066Z,55.40
2023-03-23T17:32:47.251Z,54.82
2023-03-23T17:35:14.378Z,55.04
2023-03-23T17:37:42.943Z,55.01
2023-03-23T17:40:15.847Z,55.36
2023-03-23T17:42:45.821Z,55.76
2023-03-23T17:45:39.780Z,56.46
2023-03-23T17:50:53.294Z,55.24
2023-03-23T17:53:44.458Z,55.60
2023-03-23T17:56:34.214Z,55.69
2023-03-23T17:59:04.451Z,54.44
2023-03-23T18:01:40.943Z,54.10
2023-03-23T18:04:14.087Z,54.03
2023-03-23T18:06:41.013Z,54.81
2023-03-23T18:09:08.160Z,54.45
2023-03-23T18:11:35.437Z,52.96
2023-03-23T18:14:06.382Z,54.30
2023-03-23T18:16:50.458Z,52.21
2023-03-23T18:19:23.626Z,52.06
2023-03-23T18:22:04.337Z,50.69
2023-03-23T18:24:46.376Z,50.37
2023-03-23T18:27:20.028Z,50.03
2023-03-23T18:29:48.144Z,51.44
2023-03-23T18:32:17.327Z,50.39
2023-03-23T18:34:54.122Z,48.12
2023-03-23T18:37:22.820Z,47.86
2023-03-23T18:39:55.661Z,47.75
2023-03-23T18:42:25.713Z,45.60
2023-03-23T18:45:01.137Z,45.37
2023-03-23T18:47:39.453Z,45.30
2023-03-23T18:50:18.910Z,42.20
2023-03-23T18:52:49.522Z,43.31
2023-03-23T18:55:25.252Z,43.31
2023-03-23T18:58:00.753Z,44.01
2023-03-23T19:00:27.743Z,43.25
2023-03-23T19:02:55.815Z,41.50
2023-03-23T19:05:23.545Z,43.16
2023-03-23T19:08:06.907Z,41.56
2023-03-23T19:10:41.659Z,43.94
2023-03-23T19:13:13.923Z,41.31
2023-03-23T19:15:41.544Z,38.53
2023-03-23T19:18:10.675Z,36.89
2023-03-23T19:21:09.633Z,37.56
2023-03-23T19:23:24.812Z,41.49
2023-03-23T19:25:55.262Z,40.13
2023-03-23T19:29:11.584Z,40.41
2023-03-23T19:31:39.238Z,42.64
2023-03-23T19:34:18.638Z,40.01
2023-03-23T19:37:05.504Z,40.29
2023-03-23T19:39:35.143Z,39.30
2023-03-23T19:42:09.042Z,39.97
2023-03-23T19:44:39.212Z,42.24
2023-03-23T19:47:10.468Z,41.23
2023-03-23T19:49:47.339Z,39.68
2023-03-23T19:52:26.185Z,43.84
2023-03-23T19:54:53.391Z,41.09
2023-03-23T19:57:31.277Z,43.59
2023-03-23T20:00:11.921Z,42.27
2023-03-23T20:02:39.108Z,42.81
2023-03-23T20:05:09.042Z,44.35
2023-03-23T20:07:40.793Z,42.32
2023-03-23T20:10:11.743Z,42.65
2023-03-23T20:12:47.220Z,41.13
2023-03-23T20:15:40.493Z,44.33
2023-03-23T20:18:20.277Z,41.88
2023-03-23T20:21:00.337Z,44.04
2023-03-23T20:23:39.000Z,41.84
2023-03-23T20:26:37.489Z,44.18
2023-03-23T20:29:09.318Z,43.27
2023-03-23T20:31:44.216Z,45.03
2023-03-23T20:34:37.396Z,43.91
2023-03-23T20:37:18.853Z,45.10
2023-03-23T20:39:47.217Z,42.83
2023-03-23T20:42:14.881Z,42.78
2023-03-23T20:44:44.733Z,44.70
2023-03-23T20:47:24.293Z,43.20
2023-03-23T20:50:07.404Z,44.61
2023-03-23T20:52:40.465Z,45.12
2023-03-23T20:55:08.145Z,44.70
2023-03-23T20:57:35.008Z,44.25
2023-03-23T21:00:08.274Z,46.11
2023-03-23T21:02:44.481Z,45.83
2023-03-23T21:05:13.051Z,45.71
2023-03-23T21:07:58.522Z,44.22
2023-03-23T21:10:34.634Z,45.50
2023-03-23T21:13:02.154Z,44.72
2023-03-23T21:15:39.495Z,46.22
2023-03-23T21:18:09.800Z,45.50
2023-03-23T21:20:56.390Z,46.58
2023-03-23T21:23:36.715Z,44.39
2023-03-23T21:26:32.688Z,45.41
2023-03-23T21:29:06.225Z,45.00
2023-03-23T21:31:35.486Z,45.14
2023-03-23T21:34:09.020Z,45.99
2023-03-23T21:39:21.269Z,45.89
2023-03-23T21:42:13.874Z,47.53
2023-03-23T21:44:50.533Z,46.51
2023-03-23T21:47:20.157Z,47.21
2023-03-23T21:49:48.551Z,47.08
2023-03-23T21:52:15.511Z,47.63
2023-03-23T21:54:59.276Z,46.83
2023-03-23T21:57:27.990Z,46.57
2023-03-23T22:00:10.444Z,47.75
2023-03-23T22:05:40.128Z,48.07
2023-03-23T22:08:38.586Z,46.94
2023-03-23T22:11:10.877Z,46.05
2023-03-23T22:13:39.337Z,47.46
2023-03-23T22:16:13.554Z,47.88
2023-03-23T22:18:53.013Z,48.27
2023-03-23T22:21:29.142Z,46.85
2023-03-23T22:24:08.310Z,47.66
2023-03-23T22:26:35.833Z,47.91
2023-03-23T22:29:17.234Z,46.84
2023-03-23T22:31:49.197Z,48.24
2023-03-23T22:35:06.082Z,47.33
2023-03-23T22:37:41.026Z,48.38
2023-03-23T22:40:17.077Z,49.15
2023-03-23T22:42:51.609Z,48.87
2023-03-23T22:45:28.769Z,47.89
2023-03-23T22:48:08.944Z,47.98
2023-03-23T22:51:12.615Z,49.07
2023-03-23T22:53:51.108Z,49.18
2023-03-23T22:59:33.069Z,49.28
2023-03-23T23:01:59.951Z,47.97
2023-03-23T23:04:28.429Z,49.37
2023-03-23T23:07:12.497Z,48.31
2023-03-23T23:09:57.191Z,49.16
2023-03-23T23:12:39.282Z,50.23
2023-03-23T23:15:23.180Z,49.39
2023-03-23T23:17:58.582Z,50.28
2023-03-23T23:20:36.172Z,50.12
2023-03-23T23:23:37.688Z,49.42
2023-03-23T23:26:07.561Z,49.91
2023-03-23T23:28:54.592Z,50.04
2023-03-23T23:31:40.867Z,50.00
2023-03-23T23:34:27.774Z,50.39
2023-03-23T23:37:05.194Z,50.27
2023-03-23T23:39:38.586Z,50.17
2023-03-23T23:42:28.860Z,49.96
2023-03-23T23:45:11.188Z,50.23
2023-03-23T23:47:44.262Z,50.63
2023-03-23T23:50:23.813Z,51.17
2023-03-23T23:52:53.752Z,51.07
2023-03-23T23:55:28.098Z,49.22
2023-03-23T23:58:03.111Z,49.70
